createdAt,value
2018-05-31T00:00:38.798Z,95925.52
2018-05-31T00:03:08.532Z,95931.19
2018-05-31T00:05:38.650Z,95924.79
2018-05-31T00:08:08.776Z,95927.36
2018-05-31T00:10:38.498Z,95934.85
2018-05-31T00:13:08.516Z,95941.05
2018-05-31T00:15:39.467Z,95938.00
2018-05-31T00:18:09.196Z,95935.09
2018-05-31T00:20:38.754Z,95931.50
2018-05-31T00:23:08.950Z,95923.08
2018-05-31T00:25:38.656Z,95927.06
2018-05-31T00:28:08.419Z,95919.78
2018-05-31T00:30:38.134Z,95911.36
2018-05-31T00:33:07.735Z,95915.77
2018-05-31T00:35:37.330Z,95908.58
2018-05-31T00:38:07.094Z,95899.71
2018-05-31T00:40:36.805Z,95902.55
2018-05-31T00:43:06.590Z,95901.72
2018-05-31T00:45:36.318Z,95902.28
2018-05-31T00:48:05.869Z,95914.78
2018-05-31T00:50:35.990Z,95915.77
2018-05-31T00:53:05.536Z,95908.18
2018-05-31T00:55:52.242Z,95901.19
2018-05-31T00:58:21.956Z,95890.22
2018-05-31T01:00:51.749Z,95884.60
2018-05-31T01:03:21.463Z,95882.41
2018-05-31T01:05:51.184Z,95890.29
2018-05-31T01:08:20.913Z,95895.77
2018-05-31T01:10:50.647Z,95892.33
2018-05-31T01:13:20.384Z,95896.67
2018-05-31T01:15:50.530Z,95885.82
2018-05-31T01:18:20.282Z,95890.29
2018-05-31T01:20:50.022Z,95895.62
2018-05-31T01:23:20.145Z,95887.03
2018-05-31T01:25:50.257Z,95882.95
2018-05-31T01:28:21.182Z,95886.27
2018-05-31T01:30:50.911Z,95887.14
2018-05-31T01:33:21.041Z,95891.06
2018-05-31T01:35:51.161Z,95892.80
2018-05-31T01:38:34.826Z,95884.56
2018-05-31T01:41:04.557Z,95887.44
2018-05-31T01:43:34.285Z,95895.38
2018-05-31T01:46:04.014Z,95893.77
2018-05-31T01:48:33.965Z,95906.67
2018-05-31T01:51:03.724Z,95900.84
2018-05-31T01:53:33.593Z,95895.13
2018-05-31T01:56:03.936Z,95890.73
2018-05-31T01:58:33.943Z,95895.72
2018-05-31T02:01:04.426Z,95902.81
2018-05-31T02:03:34.441Z,95897.80
2018-05-31T02:06:04.561Z,95892.17
2018-05-31T02:08:34.316Z,95891.78
2018-05-31T02:11:04.117Z,95901.63
2018-05-31T02:13:33.825Z,95906.44
2018-05-31T02:16:03.559Z,95906.63
2018-05-31T02:18:33.092Z,95900.47
2018-05-31T02:21:02.820Z,95889.16
2018-05-31T02:23:32.573Z,95880.44
2018-05-31T02:26:02.322Z,95885.33
2018-05-31T02:28:31.839Z,95878.02
2018-05-31T02:31:01.903Z,95868.11
2018-05-31T02:33:31.643Z,95868.59
2018-05-31T02:36:01.388Z,95866.12
2018-05-31T02:38:31.117Z,95865.91
2018-05-31T02:41:00.643Z,95869.16
2018-05-31T02:43:30.387Z,95869.82
2018-05-31T02:46:00.092Z,95865.91
2018-05-31T02:48:29.814Z,95857.67
2018-05-31T02:50:59.563Z,95854.53
2018-05-31T02:53:29.682Z,95849.02
2018-05-31T02:55:59.809Z,95849.06
2018-05-31T02:58:29.923Z,95851.73
2018-05-31T03:01:00.064Z,95846.70
2018-05-31T03:03:29.775Z,95840.60
2018-05-31T03:05:59.299Z,95840.78
2018-05-31T03:08:29.085Z,95837.30
2018-05-31T03:10:58.621Z,95830.27
2018-05-31T03:13:28.187Z,95838.42
2018-05-31T03:15:58.155Z,95838.00
2018-05-31T03:18:27.887Z,95837.50
2018-05-31T03:20:57.625Z,95834.27
2018-05-31T03:23:27.775Z,95846.53
2018-05-31T03:25:57.480Z,95846.71
2018-05-31T03:28:27.205Z,95853.13
2018-05-31T03:30:56.738Z,95846.94
2018-05-31T03:33:26.477Z,95841.94
2018-05-31T03:35:56.271Z,95830.63
2018-05-31T03:38:26.006Z,95826.30
2018-05-31T03:40:55.814Z,95827.42
2018-05-31T03:43:25.591Z,95830.95
2018-05-31T03:45:55.306Z,95828.84
2018-05-31T03:48:25.031Z,95836.41
2018-05-31T03:50:54.739Z,95844.52
2018-05-31T03:53:24.271Z,95850.62
2018-05-31T03:55:54.613Z,95848.14
2018-05-31T03:58:24.358Z,95840.18
2018-05-31T04:00:54.125Z,95853.05
2018-05-31T04:03:24.305Z,95855.53
2018-05-31T04:05:54.017Z,95852.00
2018-05-31T04:08:23.741Z,95854.09
2018-05-31T04:10:55.227Z,95862.18
2018-05-31T04:13:24.745Z,95859.78
2018-05-31T04:15:54.735Z,95864.73
2018-05-31T04:18:24.863Z,95863.08
2018-05-31T04:20:54.403Z,95864.61
2018-05-31T04:23:23.965Z,95868.47
2018-05-31T04:25:53.883Z,95863.47
2018-05-31T04:28:24.047Z,95862.32
2018-05-31T04:30:53.768Z,95868.88
2018-05-31T04:33:23.486Z,95869.20
2018-05-31T04:35:53.185Z,95877.39
2018-05-31T04:38:22.913Z,95868.12
2018-05-31T04:40:52.676Z,95877.31
2018-05-31T04:43:22.397Z,95882.34
2018-05-31T04:45:52.153Z,95884.68
2018-05-31T04:48:21.951Z,95887.38
2018-05-31T04:50:51.725Z,95890.33
2018-05-31T04:53:21.503Z,95881.60
2018-05-31T04:55:51.263Z,95888.38
2018-05-31T04:58:20.997Z,95892.84
2018-05-31T05:00:50.737Z,95893.60
2018-05-31T05:03:20.449Z,95897.88
2018-05-31T05:05:50.211Z,95907.23
2018-05-31T05:08:19.830Z,95904.19
2018-05-31T05:10:49.369Z,95917.03
2018-05-31T05:13:19.111Z,95920.41
2018-05-31T05:15:48.655Z,95912.33
2018-05-31T05:18:18.233Z,95911.08
2018-05-31T05:20:47.959Z,95907.20
2018-05-31T05:23:18.041Z,95905.20
2018-05-31T05:25:48.157Z,95899.30
2018-05-31T05:28:18.308Z,95906.91
2018-05-31T05:30:48.023Z,95914.48
2018-05-31T05:33:17.749Z,95918.05
2018-05-31T05:35:47.305Z,95908.23
2018-05-31T05:38:16.693Z,95915.79
2018-05-31T05:40:46.431Z,95908.11
2018-05-31T05:43:16.659Z,95916.89
2018-05-31T05:45:46.393Z,95913.64
2018-05-31T05:48:16.131Z,95921.95
2018-05-31T05:50:45.864Z,95919.02
2018-05-31T05:53:15.583Z,95915.34
2018-05-31T05:55:45.729Z,95913.34
2018-05-31T05:58:15.468Z,95915.94
2018-05-31T06:00:47.302Z,95920.66
2018-05-31T06:03:17.960Z,95915.78
2018-05-31T06:05:47.696Z,95921.20
2018-05-31T06:08:17.463Z,95926.33
2018-05-31T06:10:47.222Z,95934.88
2018-05-31T06:13:16.980Z,95928.02
2018-05-31T06:15:46.715Z,95936.58
2018-05-31T06:18:16.479Z,95935.55
2018-05-31T06:20:46.275Z,95941.19
2018-05-31T06:23:15.997Z,95944.45
2018-05-31T06:25:45.720Z,95944.03
2018-05-31T06:28:15.258Z,95942.83
2018-05-31T06:33:13.269Z,95946.98
2018-05-31T06:35:42.498Z,95941.23
2018-05-31T06:38:12.647Z,95938.36
2018-05-31T06:40:42.751Z,95938.79
2018-05-31T06:43:12.872Z,95941.46
2018-05-31T06:45:43.632Z,95949.34
2018-05-31T06:48:13.720Z,95950.95
2018-05-31T06:50:44.048Z,95944.03
2018-05-31T06:53:14.206Z,95943.08
2018-05-31T06:55:44.696Z,95940.50
2018-05-31T06:58:14.789Z,95943.53
2018-05-31T07:00:44.908Z,95944.77
2018-05-31T07:03:15.170Z,95954.88
2018-05-31T07:05:45.312Z,95952.81
2018-05-31T07:08:15.830Z,95953.20
2018-05-31T07:10:45.926Z,95957.91
2018-05-31T07:13:16.004Z,95960.91
2018-05-31T07:15:46.678Z,95963.77
2018-05-31T07:18:16.436Z,95951.22
2018-05-31T07:20:46.918Z,95952.91
2018-05-31T07:23:17.070Z,95950.34
2018-05-31T07:25:47.146Z,95950.38
2018-05-31T07:28:17.302Z,95942.98
2018-05-31T07:30:47.384Z,95940.23
2018-05-31T07:33:17.506Z,95943.05
2018-05-31T07:35:48.042Z,95947.24
2018-05-31T07:38:18.175Z,95947.95
2018-05-31T07:40:48.434Z,95950.66
2018-05-31T07:43:18.928Z,95958.58
2018-05-31T07:45:49.083Z,95952.86
2018-05-31T07:48:19.604Z,95958.40
2018-05-31T07:50:49.726Z,95965.66
2018-05-31T07:53:19.838Z,95969.89
2018-05-31T07:55:49.967Z,95972.78
2018-05-31T07:58:20.120Z,95973.42
2018-05-31T08:00:50.362Z,95974.31
2018-05-31T08:03:20.458Z,95976.52
2018-05-31T08:05:50.979Z,95979.75
2018-05-31T08:08:21.266Z,95979.50
2018-05-31T08:10:51.351Z,95986.59
2018-05-31T08:13:21.472Z,95979.74
2018-05-31T08:15:51.558Z,95982.58
2018-05-31T08:18:22.035Z,95978.36
2018-05-31T08:20:52.116Z,95981.98
2018-05-31T08:23:22.855Z,95983.78
2018-05-31T08:25:52.938Z,95984.69
2018-05-31T08:28:23.035Z,95981.22
2018-05-31T08:30:53.120Z,95987.05
2018-05-31T08:33:23.231Z,95985.98
2018-05-31T08:35:54.306Z,95990.31
2018-05-31T08:38:24.418Z,95989.33
2018-05-31T08:40:54.498Z,95984.19
2018-05-31T08:43:25.007Z,96002.86
2018-05-31T08:45:55.112Z,96003.68
2018-05-31T08:48:25.234Z,96004.88
2018-05-31T08:50:55.326Z,96007.84
2018-05-31T08:53:25.426Z,96001.50
2018-05-31T08:55:55.513Z,96014.15
2018-05-31T08:58:26.051Z,96001.66
2018-05-31T09:00:56.564Z,96008.24
2018-05-31T09:03:26.660Z,96015.47
2018-05-31T09:05:56.735Z,96023.32
2018-05-31T09:08:26.874Z,96014.31
2018-05-31T09:10:57.048Z,96023.02
2018-05-31T09:13:27.181Z,96018.55
2018-05-31T09:15:57.389Z,96016.34
2018-05-31T09:18:27.927Z,96016.20
2018-05-31T09:20:58.454Z,96015.01
2018-05-31T09:23:28.984Z,96020.03
2018-05-31T09:25:59.087Z,96019.89
2018-05-31T09:28:29.197Z,96015.83
2018-05-31T09:30:59.520Z,96024.19
2018-05-31T09:33:29.617Z,96026.66
2018-05-31T09:35:59.703Z,96024.09
2018-05-31T09:38:30.378Z,96015.33
2018-05-31T09:41:00.482Z,96011.36
2018-05-31T09:43:30.594Z,96014.50
2018-05-31T09:46:00.673Z,96014.30
2018-05-31T09:48:30.508Z,96016.28
2018-05-31T09:51:01.047Z,96015.57
2018-05-31T09:53:31.211Z,96018.02
2018-05-31T09:56:01.275Z,96012.17
2018-05-31T09:58:31.760Z,96013.61
2018-05-31T10:01:01.562Z,96010.59
2018-05-31T10:03:31.699Z,96007.23
2018-05-31T10:06:01.790Z,95999.56
2018-05-31T10:08:31.908Z,95999.94
2018-05-31T10:11:02.012Z,96000.45
2018-05-31T10:13:32.124Z,96002.47
2018-05-31T10:16:02.221Z,96000.45
2018-05-31T10:18:32.344Z,95997.86
2018-05-31T10:21:02.828Z,95989.41
2018-05-31T10:23:32.910Z,95989.91
2018-05-31T10:26:03.398Z,95987.88
2018-05-31T10:28:33.483Z,95987.73
2018-05-31T10:31:03.570Z,95976.91
2018-05-31T10:33:34.085Z,95980.32
2018-05-31T10:36:04.165Z,95982.52
2018-05-31T10:38:34.241Z,95980.02
2018-05-31T10:41:04.724Z,95979.63
2018-05-31T10:43:34.839Z,95981.64
2018-05-31T10:46:04.919Z,95987.98
2018-05-31T10:48:35.423Z,95981.98
2018-05-31T10:51:05.585Z,95977.86
2018-05-31T10:53:36.141Z,95975.14
2018-05-31T10:56:05.879Z,95978.02
2018-05-31T10:58:35.965Z,95965.62
2018-05-31T11:01:06.055Z,95970.73
2018-05-31T11:03:36.527Z,95964.86
2018-05-31T11:06:06.619Z,95957.53
2018-05-31T11:08:36.739Z,95952.95
2018-05-31T11:11:07.079Z,95952.89
2018-05-31T11:13:37.185Z,95952.84
2018-05-31T11:16:07.255Z,95954.45
2018-05-31T11:18:37.767Z,95953.63
2018-05-31T11:21:07.859Z,95951.34
2018-05-31T11:23:38.489Z,95948.05
2018-05-31T11:26:08.637Z,95949.30
2018-05-31T11:28:38.764Z,95946.26
2018-05-31T11:31:08.845Z,95948.50
2018-05-31T11:33:39.019Z,95938.20
2018-05-31T11:36:09.639Z,95942.96
2018-05-31T11:38:40.068Z,95945.57
2018-05-31T11:41:10.145Z,95946.61
2018-05-31T11:43:40.620Z,95944.70
2018-05-31T11:46:10.732Z,95950.20
2018-05-31T11:48:41.040Z,95939.88
2018-05-31T11:51:11.119Z,95946.30
2018-05-31T11:53:41.215Z,95940.66
2018-05-31T11:56:11.706Z,95938.73
2018-05-31T11:58:41.849Z,95943.21
2018-05-31T12:01:11.966Z,95946.91
2018-05-31T12:03:42.083Z,95943.17
2018-05-31T12:06:12.366Z,95938.73
2018-05-31T12:08:42.478Z,95933.48
2018-05-31T12:11:12.556Z,95928.51
2018-05-31T12:13:42.703Z,95931.20
2018-05-31T12:16:13.169Z,95927.66
2018-05-31T12:18:43.004Z,95923.55
2018-05-31T12:21:13.099Z,95921.55
2018-05-31T12:23:43.234Z,95912.88
2018-05-31T12:26:13.329Z,95917.86
2018-05-31T12:28:43.504Z,95915.55
2018-05-31T12:31:14.071Z,95914.29
2018-05-31T12:33:44.184Z,95912.62
2018-05-31T12:36:14.248Z,95908.02
2018-05-31T12:38:44.367Z,95911.20
2018-05-31T12:41:14.486Z,95908.22
2018-05-31T12:43:44.601Z,95909.78
2018-05-31T12:46:14.685Z,95907.53
2018-05-31T12:48:44.785Z,95910.44
2018-05-31T12:51:15.288Z,95911.34
2018-05-31T12:53:45.400Z,95913.25
2018-05-31T12:56:15.689Z,95908.13
2018-05-31T12:58:45.791Z,95906.34
2018-05-31T13:01:15.575Z,95897.44
2018-05-31T13:03:46.056Z,95897.58
2018-05-31T13:06:15.919Z,95889.80
2018-05-31T13:08:46.421Z,95891.85
2018-05-31T13:11:16.495Z,95884.00
2018-05-31T13:13:46.304Z,95885.09
2018-05-31T13:16:16.591Z,95883.81
2018-05-31T13:18:46.701Z,95882.57
2018-05-31T13:21:17.023Z,95884.37
2018-05-31T13:23:47.143Z,95884.22
2018-05-31T13:26:17.355Z,95875.23
2018-05-31T13:28:47.455Z,95871.27
2018-05-31T13:31:17.559Z,95870.11
2018-05-31T13:33:47.375Z,95863.32
2018-05-31T13:36:17.452Z,95852.20
2018-05-31T13:38:47.547Z,95840.48
2018-05-31T13:41:17.648Z,95836.27
2018-05-31T13:43:47.781Z,95829.72
2018-05-31T13:46:17.623Z,95825.55
2018-05-31T13:48:48.127Z,95814.50
2018-05-31T13:51:17.937Z,95812.38
2018-05-31T13:53:48.029Z,95806.03
2018-05-31T13:56:18.163Z,95811.53
2018-05-31T13:58:48.239Z,95806.53
2018-05-31T14:01:18.719Z,95809.74
2018-05-31T14:03:48.811Z,95806.64
2018-05-31T14:06:18.909Z,95806.56
2018-05-31T14:08:48.688Z,95807.53
2018-05-31T14:11:18.443Z,95818.30
2018-05-31T14:13:49.219Z,95820.14
2018-05-31T14:16:19.309Z,95814.08
2018-05-31T14:18:49.396Z,95819.16
2018-05-31T14:21:19.457Z,95819.82
2018-05-31T14:23:49.604Z,95819.58
2018-05-31T14:26:19.719Z,95822.63
2018-05-31T14:28:49.840Z,95807.78
2018-05-31T14:31:19.926Z,95812.09
2018-05-31T14:33:50.420Z,95812.23
2018-05-31T14:36:20.927Z,95802.80
2018-05-31T14:38:51.028Z,95804.59
2018-05-31T14:41:21.114Z,95801.02
2018-05-31T14:43:51.243Z,95801.41
2018-05-31T14:46:21.397Z,95807.73
2018-05-31T14:48:51.201Z,95807.09
2018-05-31T14:51:21.289Z,95804.07
2018-05-31T14:53:51.383Z,95807.83
2018-05-31T14:56:21.535Z,95806.82
2018-05-31T14:58:51.644Z,95807.95
2018-05-31T15:01:22.134Z,95814.11
2018-05-31T15:03:52.266Z,95817.88
2018-05-31T15:06:22.936Z,95816.30
2018-05-31T15:08:53.032Z,95810.73
2018-05-31T15:11:23.183Z,95809.73
2018-05-31T15:13:53.293Z,95805.05
2018-05-31T15:16:23.866Z,95803.74
2018-05-31T15:18:54.014Z,95795.82
2018-05-31T15:21:24.115Z,95786.44
2018-05-31T15:23:55.417Z,95783.79
2018-05-31T15:26:25.524Z,95776.28
2018-05-31T15:28:55.735Z,95772.87
2018-05-31T15:31:26.229Z,95774.55
2018-05-31T15:33:56.322Z,95780.91
2018-05-31T15:36:26.405Z,95783.45
2018-05-31T15:38:56.912Z,95777.70
2018-05-31T15:41:27.036Z,95776.16
2018-05-31T15:43:57.578Z,95772.31
2018-05-31T15:46:28.077Z,95769.64
2018-05-31T15:48:58.254Z,95767.66
2018-05-31T15:51:28.355Z,95759.70
2018-05-31T15:53:58.860Z,95753.91
2018-05-31T15:56:28.994Z,95755.84
2018-05-31T15:58:59.548Z,95760.73
2018-05-31T16:01:29.656Z,95767.77
2018-05-31T16:04:00.178Z,95769.75
2018-05-31T16:06:30.680Z,95758.02
2018-05-31T16:09:00.836Z,95756.22
2018-05-31T16:11:31.382Z,95770.23
2018-05-31T16:14:01.536Z,95781.95
2018-05-31T16:16:31.646Z,95786.67
2018-05-31T16:19:01.746Z,95779.77
2018-05-31T16:21:31.839Z,95802.27
2018-05-31T16:24:02.342Z,95807.78
2018-05-31T16:26:32.434Z,95788.09
2018-05-31T16:29:02.524Z,95772.03
2018-05-31T16:31:32.390Z,95783.38
2018-05-31T16:34:02.504Z,95789.80
2018-05-31T16:36:32.608Z,95781.61
2018-05-31T16:39:02.697Z,95778.72
2018-05-31T16:41:33.778Z,95779.91
2018-05-31T16:44:04.523Z,95775.36
2018-05-31T16:46:34.638Z,95775.12
2018-05-31T16:49:04.764Z,95779.00
2018-05-31T16:51:35.074Z,95767.32
2018-05-31T16:54:04.829Z,95761.53
2018-05-31T16:56:35.015Z,95755.81
2018-05-31T16:59:05.112Z,95754.14
2018-05-31T17:01:35.454Z,95762.05
2018-05-31T17:04:05.553Z,95755.67
2018-05-31T17:06:35.628Z,95743.05
2018-05-31T17:09:06.171Z,95738.91
2018-05-31T17:11:36.288Z,95739.47
2018-05-31T17:14:06.800Z,95736.80
2018-05-31T17:16:36.894Z,95723.63
2018-05-31T17:19:07.008Z,95718.73
2018-05-31T17:21:37.097Z,95710.40
2018-05-31T17:24:07.225Z,95706.84
2018-05-31T17:26:37.312Z,95705.14
2018-05-31T17:29:07.848Z,95707.47
2018-05-31T17:31:38.387Z,95711.48
2018-05-31T17:34:08.480Z,95703.77
2018-05-31T17:36:38.636Z,95705.42
2018-05-31T17:39:08.744Z,95714.67
2018-05-31T17:41:39.234Z,95715.33
2018-05-31T17:44:09.388Z,95725.67
2018-05-31T17:46:39.876Z,95735.98
2018-05-31T17:49:09.970Z,95746.55
2018-05-31T17:51:40.070Z,95749.88
2018-05-31T17:54:10.174Z,95755.23
2018-05-31T17:56:40.636Z,95765.31
2018-05-31T17:59:10.710Z,95775.19
2018-05-31T18:01:40.796Z,95786.91
2018-05-31T18:04:10.982Z,95791.14
2018-05-31T18:06:41.068Z,95794.08
2018-05-31T18:09:11.584Z,95802.23
2018-05-31T18:11:41.746Z,95813.84
2018-05-31T18:14:11.834Z,95821.60
2018-05-31T18:16:42.340Z,95826.10
2018-05-31T18:19:12.441Z,95829.55
2018-05-31T18:21:43.396Z,95830.40
2018-05-31T18:24:13.504Z,95825.89
2018-05-31T18:26:43.402Z,95832.57
2018-05-31T18:29:13.510Z,95839.64
2018-05-31T18:31:43.591Z,95835.67
2018-05-31T18:34:13.692Z,95845.77
2018-05-31T18:36:44.196Z,95842.86
2018-05-31T18:39:13.970Z,95847.97
2018-05-31T18:41:44.485Z,95847.06
2018-05-31T18:44:14.602Z,95848.56
2018-05-31T18:46:44.699Z,95842.66
2018-05-31T18:49:15.118Z,95856.76
2018-05-31T18:51:45.233Z,95863.27
2018-05-31T18:54:15.306Z,95885.92
2018-05-31T18:56:45.438Z,95887.58
2018-05-31T19:06:02.573Z,95969.06
2018-05-31T19:08:32.088Z,95988.98
2018-05-31T19:11:01.616Z,95987.78
2018-05-31T19:13:36.560Z,95987.09
2018-05-31T19:16:06.083Z,95976.03
2018-05-31T19:18:44.314Z,95966.33
2018-05-31T19:21:13.875Z,95968.36
2018-05-31T19:23:43.431Z,95983.87
2018-05-31T19:26:13.196Z,95980.10
2018-05-31T19:28:42.471Z,95988.31
2018-05-31T19:31:11.781Z,95999.80
2018-05-31T19:33:41.305Z,96009.65
2018-05-31T19:36:16.198Z,96014.36
2018-05-31T19:38:45.713Z,96028.66
2018-05-31T19:41:15.311Z,96033.75
2018-05-31T19:43:50.281Z,96057.27
2018-05-31T19:46:19.847Z,96092.88
2018-05-31T19:48:49.389Z,96116.39
2018-05-31T19:54:24.863Z,96054.59
2018-05-31T19:56:54.374Z,96045.24
2018-05-31T19:59:29.280Z,96039.38
2018-05-31T20:02:04.117Z,96036.91
2018-05-31T20:08:10.255Z,96089.66
2018-05-31T20:10:40.173Z,96106.16
2018-05-31T20:13:10.098Z,96106.37
2018-05-31T20:15:39.612Z,96116.11
2018-05-31T20:18:09.121Z,96129.39
2018-05-31T20:20:38.703Z,96138.72
2018-05-31T20:23:08.751Z,96148.47
2018-05-31T20:25:38.296Z,96157.49
2018-05-31T20:28:07.877Z,96157.78
2018-05-31T20:30:37.530Z,96158.14
2018-05-31T20:33:07.209Z,96157.18
2018-05-31T20:35:36.752Z,96152.63
2018-05-31T20:38:06.695Z,96173.05
2018-05-31T20:40:36.262Z,96172.52
2018-05-31T20:43:05.171Z,96166.33
2018-05-31T20:45:35.087Z,96161.03
2018-05-31T20:48:05.003Z,96162.60
2018-05-31T20:50:34.965Z,96160.38
2018-05-31T20:53:04.563Z,96159.13
2018-05-31T20:55:34.115Z,96171.60
2018-05-31T20:58:03.664Z,96166.55
2018-05-31T21:00:34.061Z,96165.67
2018-05-31T21:03:04.061Z,96166.00
2018-05-31T21:05:33.675Z,96165.02
2018-05-31T21:08:03.437Z,96159.48
2018-05-31T21:10:33.071Z,96152.75
2018-05-31T21:13:02.656Z,96144.09
2018-05-31T21:15:33.071Z,96146.78
2018-05-31T21:21:38.140Z,96174.20
2018-05-31T21:24:07.749Z,96179.69
2018-05-31T21:26:37.279Z,96188.83
2018-05-31T21:29:06.825Z,96193.45
2018-05-31T21:31:36.751Z,96202.71
2018-05-31T21:34:07.543Z,96204.98
2018-05-31T21:36:37.126Z,96203.98
2018-05-31T21:39:06.475Z,96205.48
2018-05-31T21:41:36.502Z,96201.69
2018-05-31T21:44:06.427Z,96194.62
2018-05-31T21:46:36.063Z,96201.11
2018-05-31T21:49:05.609Z,96195.33
2018-05-31T21:51:35.143Z,96194.48
2018-05-31T21:54:04.781Z,96194.48
2018-05-31T21:56:34.299Z,96203.56
2018-05-31T21:59:03.840Z,96193.55
2018-05-31T22:01:33.377Z,96186.59
2018-05-31T22:04:03.359Z,96185.01
2018-05-31T22:06:33.612Z,96181.69
2018-05-31T22:09:02.929Z,96174.94
2018-05-31T22:11:32.465Z,96180.76
2018-05-31T22:14:02.206Z,96182.64
2018-05-31T22:16:32.169Z,96191.56
2018-05-31T22:19:01.953Z,96191.86
2018-05-31T22:21:31.906Z,96199.69
2018-05-31T22:24:01.486Z,96204.23
2018-05-31T22:26:31.524Z,96216.70
2018-05-31T22:29:01.060Z,96216.99
2018-05-31T22:31:30.689Z,96221.84
2018-05-31T22:34:00.301Z,96224.05
2018-05-31T22:36:29.887Z,96224.38
2018-05-31T22:38:59.963Z,96219.98
2018-05-31T22:41:29.639Z,96223.31
2018-05-31T22:43:59.383Z,96217.38
2018-05-31T22:46:28.927Z,96227.77
2018-05-31T22:49:49.189Z,96222.81
2018-05-31T22:52:18.718Z,96215.84
2018-05-31T22:54:48.271Z,96217.96
2018-05-31T22:57:17.826Z,96211.16
2018-05-31T22:59:47.359Z,96208.45
2018-05-31T23:02:16.919Z,96208.25
2018-05-31T23:04:46.129Z,96217.01
2018-05-31T23:07:16.383Z,96210.70
2018-05-31T23:09:45.945Z,96218.23
2018-05-31T23:12:15.537Z,96217.11
2018-05-31T23:14:45.466Z,96216.96
2018-05-31T23:17:15.753Z,96226.73
2018-05-31T23:19:45.362Z,96233.63
2018-05-31T23:22:14.899Z,96237.09
2018-05-31T23:24:44.945Z,96242.56
2018-05-31T23:27:14.461Z,96247.31
2018-05-31T23:29:44.014Z,96248.19
2018-05-31T23:32:13.566Z,96249.80
2018-05-31T23:34:43.116Z,96243.86
2018-05-31T23:41:49.308Z,96232.09
2018-05-31T23:44:18.865Z,96239.97
2018-05-31T23:46:48.407Z,96248.11
2018-05-31T23:49:18.002Z,96243.59
2018-05-31T23:51:47.799Z,96250.78
2018-05-31T23:54:17.337Z,96252.26
2018-05-31T23:56:46.937Z,96264.03
2018-05-31T23:59:16.473Z,96260.93
